Clermont County, Batavia, OH

3:38 AM EST on December 11, 2019 (GMT -0500)
Clermont County, Batavia

Weather History for KI69 - October, 2019

Change the Weather History Date:

Tuesday, October 22, 2019

  Actual Average (KLUK) Record (KLUK)
Temperature  
Mean Temperature 56 °F -  
Max Temperature 62 °F 66 °F 84 °F (1963)
Min Temperature 50 °F 43 °F 26 °F (1987)
Degree Days  
Heating Degree Days 9    
Growing Degree Days 6 (Base 50)    
Moisture  
Dew Point 47 °F    
Average Humidity 71    
Maximum Humidity 96    
Minimum Humidity 43    
Precipitation  
Precipitation 0.01 in - - ()
Sea Level Pressure  
Sea Level Pressure 29.84 in    
Wind  
Wind Speed 10 mph (SW)    
Max Wind Speed 22 mph    
Max Gust Speed 29 mph    
Visibility 10 miles    
Events      
Averages and records for this station are not official NWS values.
T = Trace of Precipitation, MM = Missing Value Source: NWS Daily Summary

Daily Weather History Graph

Daily Weather History Graph

Search for Another Location

Airport or City:

Astronomy

Oct. 22, 2019 Rise Set
Actual Time 7:53 AM EDT 6:48 PM EDT
Civil Twilight 7:26 AM EDT 7:15 PM EDT
Nautical Twilight 6:55 AM EDT 7:46 PM EDT
Astronomical Twilight 6:24 AM EDT 8:17 PM EDT
Moon 1:06 AM EDT (10/22) 3:53 PM EDT (10/22)
Length of Visible Light 11h 49m
Length of Day
10h 55m
Last Quarter, 37% of the Moon is Illuminated
Oct 22
Last Quarter
Oct 27
New
Nov 4
First Quarter
Nov 12
Full
Nov 19
Last Quarter

Hourly Weather History & Observations

Time (EDT) Temp. Dew Point Humidity Pressure Visibility Wind Dir Wind Speed Gust Speed Precip Events Conditions
12:16 AM 61.3 °F 58.6 °F 91% 29.81 in 10.0 mi SSW 8.1 mph - N/A   Overcast
12:35 AM 61.3 °F 58.6 °F 91% 29.81 in 10.0 mi SSW 9.2 mph - N/A   Overcast
12:55 AM 61.3 °F 58.5 °F 90% 29.80 in 10.0 mi SSW 9.2 mph - N/A   Overcast
1:15 AM 61.3 °F 58.1 °F 89% 29.81 in 10.0 mi SSW 9.2 mph - N/A   Overcast
1:38 AM 61.2 °F 58.1 °F 90% 29.81 in 10.0 mi SW 8.1 mph - N/A   Overcast
1:56 AM 61.0 °F 57.6 °F 88% 29.81 in 10.0 mi SSW 11.5 mph - N/A   Overcast
2:15 AM 60.8 °F 57.6 °F 89% 29.81 in 10.0 mi SW 9.2 mph - N/A   Overcast
2:35 AM 60.4 °F 57.2 °F 89% 29.80 in 10.0 mi SW 9.2 mph - N/A   Overcast
2:55 AM 60.1 °F 57.0 °F 90% 29.79 in 10.0 mi SW 9.2 mph - N/A   Mostly Cloudy
3:00 AM 60.1 °F 57.2 °F 90% 29.80 in 10.0 mi SW 8.1 mph - N/A   Mostly Cloudy
3:18 AM 59.9 °F 56.8 °F 90% 29.79 in 10.0 mi SW 6.9 mph - 0.01 in   Scattered Clouds
3:36 AM 59.4 °F 56.7 °F 91% 29.78 in 10.0 mi SW 5.8 mph - 0.01 in   Scattered Clouds
3:55 AM 59.0 °F 56.5 °F 91% 29.78 in 10.0 mi SW 6.9 mph - 0.01 in   Scattered Clouds
4:15 AM 58.5 °F 56.5 °F 93% 29.77 in 10.0 mi SW 6.9 mph - N/A   Clear
4:39 AM 58.1 °F 56.3 °F 94% 29.77 in 10.0 mi SW 8.1 mph - N/A   Clear
4:58 AM 58.3 °F 56.3 °F 93% 29.79 in 10.0 mi SW 6.9 mph - N/A   Scattered Clouds
5:16 AM 58.3 °F 55.9 °F 92% 29.79 in 10.0 mi SW 8.1 mph - N/A   Clear
5:35 AM 58.1 °F 55.8 °F 92% 29.81 in 10.0 mi SW 4.6 mph - N/A   Clear
5:55 AM 57.6 °F 55.4 °F 92% 29.80 in 10.0 mi SW 6.9 mph - N/A   Clear
6:37 AM 56.7 °F 54.7 °F 93% 29.80 in 10.0 mi SW 5.8 mph - N/A   Clear
6:56 AM 56.3 °F 54.5 °F 94% 29.80 in 10.0 mi SSW 6.9 mph - N/A   Clear
7:15 AM 55.8 °F 54.5 °F 96% 29.80 in 10.0 mi SSW 5.8 mph - N/A   Clear
7:35 AM 55.4 °F 53.8 °F 94% 29.80 in 10.0 mi SSW 6.9 mph - N/A   Clear
7:59 AM 55.4 °F 53.6 °F 94% 29.80 in 10.0 mi SSW 5.8 mph - N/A   Clear
8:17 AM 54.9 °F 53.6 °F 96% 29.80 in 10.0 mi SSW 6.9 mph - N/A   Clear
8:35 AM 55.4 °F 53.6 °F 94% 29.80 in 10.0 mi SSW 6.9 mph - N/A   Clear
8:55 AM 56.3 °F 53.1 °F 89% 29.81 in 10.0 mi SSW 5.8 mph - N/A   Clear
9:15 AM 57.2 °F 52.0 °F 83% 29.81 in 10.0 mi SW 11.5 mph 19.6 mph N/A   Clear
9:39 AM 57.4 °F 51.4 °F 81% 29.82 in 10.0 mi SW 13.8 mph - N/A   Scattered Clouds
9:57 AM 57.4 °F 51.6 °F 81% 29.82 in 10.0 mi WSW 15.0 mph 18.4 mph N/A   Mostly Cloudy
10:15 AM 57.0 °F 48.6 °F 73% 29.82 in 10.0 mi SW 18.4 mph 26.5 mph N/A   Overcast
10:36 AM 57.9 °F 47.8 °F 69% 29.82 in 10.0 mi WSW 16.1 mph 19.6 mph N/A   Scattered Clouds
10:55 AM 58.1 °F 45.1 °F 62% 29.82 in 10.0 mi WSW 16.1 mph 24.2 mph N/A   Scattered Clouds
11:19 AM 57.4 °F 43.5 °F 60% 29.81 in 10.0 mi WSW 17.3 mph 24.2 mph N/A   Clear
11:37 AM 58.6 °F 43.0 °F 56% 29.82 in 10.0 mi SW 15.0 mph 27.6 mph N/A   Clear
11:55 AM 58.5 °F 43.3 °F 57% 29.82 in 10.0 mi SW 17.3 mph 24.2 mph N/A   Scattered Clouds
12:15 PM 60.6 °F 44.2 °F 55% 29.82 in 10.0 mi WSW 11.5 mph 21.9 mph N/A   Mostly Cloudy
12:36 PM 61.0 °F 43.5 °F 53% 29.83 in 10.0 mi SW 20.7 mph 27.6 mph N/A   Mostly Cloudy
12:59 PM 60.6 °F 42.8 °F 52% 29.83 in 10.0 mi WSW 17.3 mph 24.2 mph N/A   Overcast
1:17 PM 58.8 °F 42.4 °F 55% 29.83 in 10.0 mi West 16.1 mph 28.8 mph N/A   Scattered Clouds
1:35 PM 60.6 °F 42.8 °F 52% 29.81 in 10.0 mi SW 12.7 mph 27.6 mph N/A   Scattered Clouds
1:55 PM 61.0 °F 41.5 °F 49% 29.81 in 10.0 mi SW 18.4 mph 24.2 mph N/A   Scattered Clouds
2:15 PM 61.9 °F 41.2 °F 47% 29.81 in 10.0 mi SW 17.3 mph 26.5 mph N/A   Scattered Clouds
2:39 PM 62.1 °F 40.5 °F 45% 29.81 in 10.0 mi West 19.6 mph 26.5 mph N/A   Scattered Clouds
2:57 PM 62.6 °F 40.5 °F 44% 29.81 in 10.0 mi SW 21.9 mph 28.8 mph N/A   Scattered Clouds
3:15 PM 62.6 °F 40.5 °F 44% 29.82 in 10.0 mi WSW 16.1 mph 19.6 mph N/A   Scattered Clouds
3:55 PM 60.4 °F 39.6 °F 46% 29.82 in 10.0 mi WSW 15.0 mph 20.7 mph N/A   Scattered Clouds
4:18 PM 61.2 °F 39.9 °F 46% 29.83 in 10.0 mi WSW 12.7 mph 18.4 mph N/A   Scattered Clouds
4:37 PM 62.4 °F 39.9 °F 44% 29.84 in 10.0 mi WSW 10.4 mph - N/A   Mostly Cloudy
4:55 PM 62.8 °F 39.7 °F 43% 29.84 in 10.0 mi SW 18.4 mph 26.5 mph N/A   Mostly Cloudy
5:15 PM 61.7 °F 38.8 °F 43% 29.84 in 10.0 mi WSW 16.1 mph 20.7 mph N/A   Mostly Cloudy
5:35 PM 60.1 °F 38.7 °F 45% 29.85 in 10.0 mi West 10.4 mph 13.8 mph N/A   Scattered Clouds
6:17 PM 59.2 °F 38.5 °F 46% 29.86 in 10.0 mi WSW 9.2 mph - N/A   Mostly Cloudy
6:35 PM 58.1 °F 38.5 °F 48% 29.87 in 10.0 mi WSW 6.9 mph - N/A   Scattered Clouds
6:58 PM 57.4 °F 38.7 °F 50% 29.87 in 10.0 mi WSW 9.2 mph - N/A   Mostly Cloudy
7:17 PM 56.5 °F 38.7 °F 51% 29.88 in 10.0 mi SW 5.8 mph - N/A   Scattered Clouds
7:35 PM 55.6 °F 38.7 °F 53% 29.89 in 10.0 mi WSW 4.6 mph - N/A   Scattered Clouds
7:55 PM 54.7 °F 39.2 °F 56% 29.89 in 10.0 mi WSW 4.6 mph - N/A   Clear
8:15 PM 53.8 °F 39.2 °F 58% 29.90 in 10.0 mi SW 4.6 mph - N/A   Clear
8:38 PM 52.0 °F 40.1 °F 64% 29.92 in 10.0 mi SW 4.6 mph - N/A   Clear
8:56 PM 52.5 °F 39.7 °F 62% 29.92 in 10.0 mi SW 4.6 mph - N/A   Clear
9:16 PM 51.8 °F 39.7 °F 63% 29.93 in 10.0 mi WSW 5.8 mph - N/A   Scattered Clouds
9:35 PM 51.8 °F 40.1 °F 64% 29.93 in 10.0 mi WSW 5.8 mph - N/A   Mostly Cloudy
10:18 PM 52.9 °F 39.6 °F 61% 29.94 in 10.0 mi West 8.1 mph - N/A   Clear
10:36 PM 52.0 °F 39.7 °F 63% 29.96 in 10.0 mi WSW 4.6 mph - N/A   Scattered Clouds
10:55 PM 51.4 °F 39.9 °F 65% 29.96 in 10.0 mi SW 4.6 mph - N/A   Scattered Clouds
11:15 PM 50.9 °F 40.1 °F 67% 29.96 in 10.0 mi SW 4.6 mph - N/A   Mostly Cloudy
11:35 PM 50.5 °F 40.1 °F 67% 29.96 in 10.0 mi SW 4.6 mph - N/A   Mostly Cloudy
11:58 PM 50.4 °F 40.3 °F 68% 29.97 in 10.0 mi SW 4.6 mph - N/A   Mostly Cloudy